sensor_id;sensor_type;location;lat;lon;timestamp;temperature;humidity
1702;DHT22;848;48.354;10.064;2023-09-08T00:00:21;14.40;99.90
1702;DHT22;848;48.354;10.064;2023-09-08T00:02:48;14.40;99.90
1702;DHT22;848;48.354;10.064;2023-09-08T00:05:15;14.30;99.90
1702;DHT22;848;48.354;10.064;2023-09-08T00:07:42;14.30;99.90
1702;DHT22;848;48.354;10.064;2023-09-08T00:10:09;14.30;99.90
1702;DHT22;848;48.354;10.064;2023-09-08T00:12:36;14.30;99.90
1702;DHT22;848;48.354;10.064;2023-09-08T00:15:06;14.30;99.90
1702;DHT22;848;48.354;10.064;2023-09-08T00:17:33;14.30;99.90
1702;DHT22;848;48.354;10.064;2023-09-08T00:20:02;14.30;99.90
1702;DHT22;848;48.354;10.064;2023-09-08T00:22:31;14.30;99.90
1702;DHT22;848;48.354;10.064;2023-09-08T00:24:58;14.20;99.90
1702;DHT22;848;48.354;10.064;2023-09-08T00:27:25;14.20;99.90
1702;DHT22;848;48.354;10.064;2023-09-08T00:29:52;14.20;99.90
1702;DHT22;848;48.354;10.064;2023-09-08T00:32:20;14.20;99.90
1702;DHT22;848;48.354;10.064;2023-09-08T00:34:47;14.20;99.90
1702;DHT22;848;48.354;10.064;2023-09-08T00:37:14;14.10;99.90
1702;DHT22;848;48.354;10.064;2023-09-08T00:39:41;14.10;99.90
1702;DHT22;848;48.354;10.064;2023-09-08T00:42:07;14.10;99.90
1702;DHT22;848;48.354;10.064;2023-09-08T00:44:34;14.10;99.90
1702;DHT22;848;48.354;10.064;2023-09-08T00:47:01;14.10;99.90
1702;DHT22;848;48.354;10.064;2023-09-08T00:49:29;14.00;99.90
1702;DHT22;848;48.354;10.064;2023-09-08T00:51:56;14.00;99.90
1702;DHT22;848;48.354;10.064;2023-09-08T00:54:23;14.00;99.90
1702;DHT22;848;48.354;10.064;2023-09-08T00:56:54;14.00;99.90
1702;DHT22;848;48.354;10.064;2023-09-08T00:59:22;14.00;99.90
1702;DHT22;848;48.354;10.064;2023-09-08T01:01:50;14.00;99.90
1702;DHT22;848;48.354;10.064;2023-09-08T01:04:17;14.00;99.90
1702;DHT22;848;48.354;10.064;2023-09-08T01:06:45;14.00;99.90
1702;DHT22;848;48.354;10.064;2023-09-08T01:09:13;13.90;99.90
1702;DHT22;848;48.354;10.064;2023-09-08T01:11:41;13.90;99.90
1702;DHT22;848;48.354;10.064;2023-09-08T01:14:08;14.00;99.90
1702;DHT22;848;48.354;10.064;2023-09-08T01:16:35;14.00;99.90
1702;DHT22;848;48.354;10.064;2023-09-08T01:19:03;14.00;99.90
1702;DHT22;848;48.354;10.064;2023-09-08T01:24:38;14.00;99.90
1702;DHT22;848;48.354;10.064;2023-09-08T01:27:12;14.00;99.90
1702;DHT22;848;48.354;10.064;2023-09-08T01:29:42;14.00;99.90
1702;DHT22;848;48.354;10.064;2023-09-08T01:32:10;13.90;99.90
1702;DHT22;848;48.354;10.064;2023-09-08T01:34:38;13.80;99.90
1702;DHT22;848;48.354;10.064;2023-09-08T01:37:06;13.80;99.90
1702;DHT22;848;48.354;10.064;2023-09-08T01:39:33;13.80;99.90
1702;DHT22;848;48.354;10.064;2023-09-08T01:42:01;13.70;99.90
1702;DHT22;848;48.354;10.064;2023-09-08T01:44:29;13.70;99.90
1702;DHT22;848;48.354;10.064;2023-09-08T01:46:56;13.70;99.90
1702;DHT22;848;48.354;10.064;2023-09-08T01:49:23;13.60;99.90
1702;DHT22;848;48.354;10.064;2023-09-08T01:51:50;13.70;99.90
1702;DHT22;848;48.354;10.064;2023-09-08T01:54:17;13.60;99.90
1702;DHT22;848;48.354;10.064;2023-09-08T01:56:44;13.60;99.90
1702;DHT22;848;48.354;10.064;2023-09-08T01:59:11;13.60;99.90
1702;DHT22;848;48.354;10.064;2023-09-08T02:01:39;13.60;99.90
1702;DHT22;848;48.354;10.064;2023-09-08T02:04:06;13.60;99.90
1702;DHT22;848;48.354;10.064;2023-09-08T02:06:33;13.60;99.90
1702;DHT22;848;48.354;10.064;2023-09-08T02:09:00;13.60;99.90
1702;DHT22;848;48.354;10.064;2023-09-08T02:11:27;13.60;99.90
1702;DHT22;848;48.354;10.064;2023-09-08T02:13:53;13.60;99.90
1702;DHT22;848;48.354;10.064;2023-09-08T02:16:20;13.60;99.90
1702;DHT22;848;48.354;10.064;2023-09-08T02:18:50;13.50;99.90
1702;DHT22;848;48.354;10.064;2023-09-08T02:21:17;13.50;99.90
1702;DHT22;848;48.354;10.064;2023-09-08T02:23:44;13.50;99.90
1702;DHT22;848;48.354;10.064;2023-09-08T02:26:11;13.40;99.90
1702;DHT22;848;48.354;10.064;2023-09-08T02:28:38;13.40;99.90
1702;DHT22;848;48.354;10.064;2023-09-08T02:31:05;13.40;99.90
1702;DHT22;848;48.354;10.064;2023-09-08T02:33:31;13.40;99.90
1702;DHT22;848;48.354;10.064;2023-09-08T02:36:03;13.40;99.90
1702;DHT22;848;48.354;10.064;2023-09-08T02:38:30;13.40;99.90
1702;DHT22;848;48.354;10.064;2023-09-08T02:40:57;13.30;99.90
1702;DHT22;848;48.354;10.064;2023-09-08T02:43:24;13.30;99.90
1702;DHT22;848;48.354;10.064;2023-09-08T02:45:51;13.30;99.90
1702;DHT22;848;48.354;10.064;2023-09-08T02:48:18;13.20;99.90
1702;DHT22;848;48.354;10.064;2023-09-08T02:50:44;13.20;99.90
1702;DHT22;848;48.354;10.064;2023-09-08T02:53:13;13.20;99.90
1702;DHT22;848;48.354;10.064;2023-09-08T02:55:40;13.20;99.90
1702;DHT22;848;48.354;10.064;2023-09-08T02:58:06;13.20;99.90
1702;DHT22;848;48.354;10.064;2023-09-08T03:00:33;13.10;99.90
1702;DHT22;848;48.354;10.064;2023-09-08T03:03:00;13.10;99.90
1702;DHT22;848;48.354;10.064;2023-09-08T03:05:27;13.10;99.90
1702;DHT22;848;48.354;10.064;2023-09-08T03:07:55;13.20;99.90
1702;DHT22;848;48.354;10.064;2023-09-08T03:10:23;13.20;99.90
1702;DHT22;848;48.354;10.064;2023-09-08T03:12:50;13.20;99.90
1702;DHT22;848;48.354;10.064;2023-09-08T03:15:17;13.20;99.90
1702;DHT22;848;48.354;10.064;2023-09-08T03:17:44;13.20;99.90
1702;DHT22;848;48.354;10.064;2023-09-08T03:20:11;13.10;99.90
1702;DHT22;848;48.354;10.064;2023-09-08T03:22:38;13.20;99.90
1702;DHT22;848;48.354;10.064;2023-09-08T03:25:06;13.10;99.90
1702;DHT22;848;48.354;10.064;2023-09-08T03:27:34;13.10;99.90
1702;DHT22;848;48.354;10.064;2023-09-08T03:30:01;13.10;99.90
1702;DHT22;848;48.354;10.064;2023-09-08T03:32:30;13.10;99.90
1702;DHT22;848;48.354;10.064;2023-09-08T03:34:57;13.10;99.90
1702;DHT22;848;48.354;10.064;2023-09-08T03:37:24;13.00;99.90
1702;DHT22;848;48.354;10.064;2023-09-08T03:39:51;13.00;99.90
1702;DHT22;848;48.354;10.064;2023-09-08T03:42:18;13.00;99.90
1702;DHT22;848;48.354;10.064;2023-09-08T03:44:46;13.00;99.90
1702;DHT22;848;48.354;10.064;2023-09-08T03:47:13;13.00;99.90
1702;DHT22;848;48.354;10.064;2023-09-08T03:49:40;13.00;99.90
1702;DHT22;848;48.354;10.064;2023-09-08T03:52:07;12.90;99.90
1702;DHT22;848;48.354;10.064;2023-09-08T03:54:34;13.00;99.90
1702;DHT22;848;48.354;10.064;2023-09-08T03:57:01;13.00;99.90
1702;DHT22;848;48.354;10.064;2023-09-08T03:59:28;12.90;99.90
1702;DHT22;848;48.354;10.064;2023-09-08T04:01:56;12.90;99.90
1702;DHT22;848;48.354;10.064;2023-09-08T04:04:23;12.90;99.90
1702;DHT22;848;48.354;10.064;2023-09-08T04:06:49;12.90;99.90
1702;DHT22;848;48.354;10.064;2023-09-08T04:09:16;12.80;99.90
1702;DHT22;848;48.354;10.064;2023-09-08T04:11:43;12.80;99.90
1702;DHT22;848;48.354;10.064;2023-09-08T04:14:10;12.80;99.90
1702;DHT22;848;48.354;10.064;2023-09-08T04:16:37;12.80;99.90
1702;DHT22;848;48.354;10.064;2023-09-08T04:19:05;12.80;99.90
1702;DHT22;848;48.354;10.064;2023-09-08T04:21:32;12.90;99.90
1702;DHT22;848;48.354;10.064;2023-09-08T04:23:59;12.90;99.90
1702;DHT22;848;48.354;10.064;2023-09-08T04:26:26;12.90;99.90
1702;DHT22;848;48.354;10.064;2023-09-08T04:28:53;12.90;99.90
1702;DHT22;848;48.354;10.064;2023-09-08T04:31:20;12.90;99.90
1702;DHT22;848;48.354;10.064;2023-09-08T04:33:47;12.90;99.90
1702;DHT22;848;48.354;10.064;2023-09-08T04:36:15;12.80;99.90
1702;DHT22;848;48.354;10.064;2023-09-08T04:38:42;12.90;99.90
1702;DHT22;848;48.354;10.064;2023-09-08T04:41:10;12.80;99.90
1702;DHT22;848;48.354;10.064;2023-09-08T04:43:37;12.80;99.90
1702;DHT22;848;48.354;10.064;2023-09-08T04:46:04;12.80;99.90
1702;DHT22;848;48.354;10.064;2023-09-08T04:48:31;12.80;99.90
1702;DHT22;848;48.354;10.064;2023-09-08T04:50:58;12.80;99.90
1702;DHT22;848;48.354;10.064;2023-09-08T04:53:26;12.80;99.90
1702;DHT22;848;48.354;10.064;2023-09-08T04:55:53;12.80;99.90
1702;DHT22;848;48.354;10.064;2023-09-08T04:58:20;12.80;99.90
1702;DHT22;848;48.354;10.064;2023-09-08T05:00:47;12.80;99.90
1702;DHT22;848;48.354;10.064;2023-09-08T05:03:13;12.80;99.90
1702;DHT22;848;48.354;10.064;2023-09-08T05:05:40;12.80;99.90
1702;DHT22;848;48.354;10.064;2023-09-08T05:08:07;12.80;99.90
1702;DHT22;848;48.354;10.064;2023-09-08T05:10:35;12.80;99.90
1702;DHT22;848;48.354;10.064;2023-09-08T05:13:02;12.80;99.90
1702;DHT22;848;48.354;10.064;2023-09-08T05:15:29;12.90;99.90
1702;DHT22;848;48.354;10.064;2023-09-08T05:17:56;12.90;99.90
1702;DHT22;848;48.354;10.064;2023-09-08T05:20:23;12.90;99.90
1702;DHT22;848;48.354;10.064;2023-09-08T05:22:50;13.00;99.90
1702;DHT22;848;48.354;10.064;2023-09-08T05:25:17;13.00;99.90
1702;DHT22;848;48.354;10.064;2023-09-08T05:27:45;13.10;99.90
1702;DHT22;848;48.354;10.064;2023-09-08T05:30:12;13.10;99.90
1702;DHT22;848;48.354;10.064;2023-09-08T05:32:39;13.10;99.90
1702;DHT22;848;48.354;10.064;2023-09-08T05:35:07;13.30;99.90
1702;DHT22;848;48.354;10.064;2023-09-08T05:37:33;13.30;99.90
1702;DHT22;848;48.354;10.064;2023-09-08T05:40:00;13.40;99.90
1702;DHT22;848;48.354;10.064;2023-09-08T05:42:29;13.50;99.90
1702;DHT22;848;48.354;10.064;2023-09-08T05:44:57;13.60;99.90
1702;DHT22;848;48.354;10.064;2023-09-08T05:47:24;13.70;99.90
1702;DHT22;848;48.354;10.064;2023-09-08T05:49:51;13.80;99.90
1702;DHT22;848;48.354;10.064;2023-09-08T05:52:17;13.90;99.90
1702;DHT22;848;48.354;10.064;2023-09-08T05:54:44;14.00;99.90
1702;DHT22;848;48.354;10.064;2023-09-08T05:57:11;14.20;99.90
1702;DHT22;848;48.354;10.064;2023-09-08T05:59:38;14.20;99.90
1702;DHT22;848;48.354;10.064;2023-09-08T06:02:06;14.30;99.90
1702;DHT22;848;48.354;10.064;2023-09-08T06:04:33;14.40;99.90
1702;DHT22;848;48.354;10.064;2023-09-08T06:07:00;14.50;99.90
1702;DHT22;848;48.354;10.064;2023-09-08T06:09:27;14.60;99.90
1702;DHT22;848;48.354;10.064;2023-09-08T06:11:54;14.80;99.90
1702;DHT22;848;48.354;10.064;2023-09-08T06:14:20;14.90;99.90
1702;DHT22;848;48.354;10.064;2023-09-08T06:16:47;15.00;99.90
1702;DHT22;848;48.354;10.064;2023-09-08T06:19:16;15.20;99.90
1702;DHT22;848;48.354;10.064;2023-09-08T06:21:42;15.30;99.90
1702;DHT22;848;48.354;10.064;2023-09-08T06:24:09;15.40;99.90
1702;DHT22;848;48.354;10.064;2023-09-08T06:26:37;15.50;99.90
1702;DHT22;848;48.354;10.064;2023-09-08T06:29:04;15.60;99.90
1702;DHT22;848;48.354;10.064;2023-09-08T06:31:31;15.70;99.90
1702;DHT22;848;48.354;10.064;2023-09-08T06:33:58;15.80;99.90
1702;DHT22;848;48.354;10.064;2023-09-08T06:36:26;15.80;99.90
1702;DHT22;848;48.354;10.064;2023-09-08T06:38:53;16.00;99.90
1702;DHT22;848;48.354;10.064;2023-09-08T06:41:20;16.00;99.90
1702;DHT22;848;48.354;10.064;2023-09-08T06:43:48;16.10;99.90
1702;DHT22;848;48.354;10.064;2023-09-08T06:46:15;16.20;99.90
1702;DHT22;848;48.354;10.064;2023-09-08T06:48:42;16.30;99.90
1702;DHT22;848;48.354;10.064;2023-09-08T06:51:09;16.40;99.90
1702;DHT22;848;48.354;10.064;2023-09-08T06:53:38;16.40;99.90
1702;DHT22;848;48.354;10.064;2023-09-08T06:56:05;16.50;99.90
1702;DHT22;848;48.354;10.064;2023-09-08T06:58:31;16.50;99.90
1702;DHT22;848;48.354;10.064;2023-09-08T07:00:58;16.60;99.90
1702;DHT22;848;48.354;10.064;2023-09-08T07:03:25;16.60;99.90
1702;DHT22;848;48.354;10.064;2023-09-08T07:05:52;16.70;99.90
1702;DHT22;848;48.354;10.064;2023-09-08T07:08:19;16.80;99.90
1702;DHT22;848;48.354;10.064;2023-09-08T07:10:51;16.90;99.90
1702;DHT22;848;48.354;10.064;2023-09-08T07:13:18;17.10;99.90
1702;DHT22;848;48.354;10.064;2023-09-08T07:15:45;17.10;99.90
1702;DHT22;848;48.354;10.064;2023-09-08T07:18:12;17.20;99.90
1702;DHT22;848;48.354;10.064;2023-09-08T07:20:39;17.20;99.90
1702;DHT22;848;48.354;10.064;2023-09-08T07:23:06;17.30;99.90
1702;DHT22;848;48.354;10.064;2023-09-08T07:25:33;17.40;99.90
1702;DHT22;848;48.354;10.064;2023-09-08T07:28:01;17.50;99.90
1702;DHT22;848;48.354;10.064;2023-09-08T07:30:28;17.60;99.90
1702;DHT22;848;48.354;10.064;2023-09-08T07:32:57;17.70;99.90
1702;DHT22;848;48.354;10.064;2023-09-08T07:35:24;17.70;99.90
1702;DHT22;848;48.354;10.064;2023-09-08T07:37:51;17.80;99.90
1702;DHT22;848;48.354;10.064;2023-09-08T07:40:18;17.80;99.90
1702;DHT22;848;48.354;10.064;2023-09-08T07:42:45;17.80;99.90
1702;DHT22;848;48.354;10.064;2023-09-08T07:45:13;17.90;99.90
1702;DHT22;848;48.354;10.064;2023-09-08T07:47:40;18.10;99.90
1702;DHT22;848;48.354;10.064;2023-09-08T07:50:22;18.20;99.90
1702;DHT22;848;48.354;10.064;2023-09-08T07:52:51;18.40;99.90
1702;DHT22;848;48.354;10.064;2023-09-08T07:55:18;18.50;99.90
1702;DHT22;848;48.354;10.064;2023-09-08T07:57:49;18.60;99.90
1702;DHT22;848;48.354;10.064;2023-09-08T08:00:18;18.60;99.90
1702;DHT22;848;48.354;10.064;2023-09-08T08:02:46;18.80;99.90
1702;DHT22;848;48.354;10.064;2023-09-08T08:05:13;19.10;99.90
1702;DHT22;848;48.354;10.064;2023-09-08T08:07:42;19.30;99.90
1702;DHT22;848;48.354;10.064;2023-09-08T08:10:10;19.70;99.90
1702;DHT22;848;48.354;10.064;2023-09-08T08:12:37;20.20;99.90
1702;DHT22;848;48.354;10.064;2023-09-08T08:15:05;20.50;99.90
1702;DHT22;848;48.354;10.064;2023-09-08T08:17:34;20.70;99.90
1702;DHT22;848;48.354;10.064;2023-09-08T08:20:01;20.90;99.90
1702;DHT22;848;48.354;10.064;2023-09-08T08:22:32;21.00;99.90
1702;DHT22;848;48.354;10.064;2023-09-08T08:24:59;20.90;99.90
1702;DHT22;848;48.354;10.064;2023-09-08T08:27:26;20.70;99.90
1702;DHT22;848;48.354;10.064;2023-09-08T08:29:53;20.60;99.90
1702;DHT22;848;48.354;10.064;2023-09-08T08:32:20;20.50;99.90
1702;DHT22;848;48.354;10.064;2023-09-08T08:34:48;20.50;99.90
1702;DHT22;848;48.354;10.064;2023-09-08T08:37:15;20.60;99.90
1702;DHT22;848;48.354;10.064;2023-09-08T08:39:42;20.70;99.90
1702;DHT22;848;48.354;10.064;2023-09-08T08:42:09;20.70;99.90
1702;DHT22;848;48.354;10.064;2023-09-08T08:44:37;20.70;99.90
1702;DHT22;848;48.354;10.064;2023-09-08T08:47:07;20.70;99.90
1702;DHT22;848;48.354;10.064;2023-09-08T08:49:34;20.70;99.90
1702;DHT22;848;48.354;10.064;2023-09-08T08:52:04;20.70;99.90
1702;DHT22;848;48.354;10.064;2023-09-08T08:54:34;20.70;99.90
1702;DHT22;848;48.354;10.064;2023-09-08T08:57:01;20.80;99.90
1702;DHT22;848;48.354;10.064;2023-09-08T08:59:29;20.80;99.90
1702;DHT22;848;48.354;10.064;2023-09-08T09:01:57;20.80;99.90
1702;DHT22;848;48.354;10.064;2023-09-08T09:04:25;20.80;99.90
1702;DHT22;848;48.354;10.064;2023-09-08T09:06:53;20.80;99.90
1702;DHT22;848;48.354;10.064;2023-09-08T09:09:23;20.80;99.90
1702;DHT22;848;48.354;10.064;2023-09-08T09:11:50;20.80;99.90
1702;DHT22;848;48.354;10.064;2023-09-08T09:14:17;20.90;99.90
1702;DHT22;848;48.354;10.064;2023-09-08T09:16:44;20.90;99.90
1702;DHT22;848;48.354;10.064;2023-09-08T09:19:18;20.90;99.90
1702;DHT22;848;48.354;10.064;2023-09-08T09:21:51;21.00;99.90
1702;DHT22;848;48.354;10.064;2023-09-08T09:24:31;21.10;99.90
1702;DHT22;848;48.354;10.064;2023-09-08T09:26:59;21.20;99.90
1702;DHT22;848;48.354;10.064;2023-09-08T09:29:27;21.30;99.90
1702;DHT22;848;48.354;10.064;2023-09-08T09:31:56;21.40;99.90
1702;DHT22;848;48.354;10.064;2023-09-08T09:34:23;21.50;99.90
1702;DHT22;848;48.354;10.064;2023-09-08T09:36:51;21.50;99.90
1702;DHT22;848;48.354;10.064;2023-09-08T09:39:19;21.50;99.90
1702;DHT22;848;48.354;10.064;2023-09-08T09:41:48;21.50;99.90
1702;DHT22;848;48.354;10.064;2023-09-08T09:44:16;21.50;99.90
1702;DHT22;848;48.354;10.064;2023-09-08T09:46:46;21.40;99.90
1702;DHT22;848;48.354;10.064;2023-09-08T09:49:13;21.40;99.90
1702;DHT22;848;48.354;10.064;2023-09-08T09:51:42;21.40;99.90
1702;DHT22;848;48.354;10.064;2023-09-08T09:54:09;21.40;99.90
1702;DHT22;848;48.354;10.064;2023-09-08T09:56:37;21.40;99.90
1702;DHT22;848;48.354;10.064;2023-09-08T09:59:08;21.40;99.90
1702;DHT22;848;48.354;10.064;2023-09-08T10:01:35;21.40;99.90
1702;DHT22;848;48.354;10.064;2023-09-08T10:04:02;21.40;99.90
1702;DHT22;848;48.354;10.064;2023-09-08T10:06:31;21.40;99.90
1702;DHT22;848;48.354;10.064;2023-09-08T10:08:59;21.30;99.90
1702;DHT22;848;48.354;10.064;2023-09-08T10:11:29;21.40;99.90
1702;DHT22;848;48.354;10.064;2023-09-08T10:13:59;21.40;99.90
1702;DHT22;848;48.354;10.064;2023-09-08T10:16:28;21.40;99.90
1702;DHT22;848;48.354;10.064;2023-09-08T10:18:58;21.40;99.90
1702;DHT22;848;48.354;10.064;2023-09-08T10:21:26;21.50;99.90
1702;DHT22;848;48.354;10.064;2023-09-08T10:23:57;21.50;99.90
1702;DHT22;848;48.354;10.064;2023-09-08T10:26:27;21.50;99.90
1702;DHT22;848;48.354;10.064;2023-09-08T10:28:55;21.60;99.90
1702;DHT22;848;48.354;10.064;2023-09-08T10:31:24;21.60;99.90
1702;DHT22;848;48.354;10.064;2023-09-08T10:33:54;21.70;99.90
1702;DHT22;848;48.354;10.064;2023-09-08T10:36:22;21.70;99.90
1702;DHT22;848;48.354;10.064;2023-09-08T10:38:49;21.60;99.90
1702;DHT22;848;48.354;10.064;2023-09-08T10:41:27;21.60;99.90
1702;DHT22;848;48.354;10.064;2023-09-08T10:44:01;21.70;99.90
1702;DHT22;848;48.354;10.064;2023-09-08T10:46:30;21.70;99.90
1702;DHT22;848;48.354;10.064;2023-09-08T10:49:03;21.70;99.90
1702;DHT22;848;48.354;10.064;2023-09-08T10:51:30;21.70;99.90
1702;DHT22;848;48.354;10.064;2023-09-08T10:53:57;21.70;99.90
1702;DHT22;848;48.354;10.064;2023-09-08T10:56:28;21.80;99.90
1702;DHT22;848;48.354;10.064;2023-09-08T10:58:55;21.80;99.90
1702;DHT22;848;48.354;10.064;2023-09-08T11:01:22;21.80;99.90
1702;DHT22;848;48.354;10.064;2023-09-08T11:03:52;21.90;99.90
1702;DHT22;848;48.354;10.064;2023-09-08T11:06:21;21.90;99.90
1702;DHT22;848;48.354;10.064;2023-09-08T11:08:49;22.00;99.90
1702;DHT22;848;48.354;10.064;2023-09-08T11:11:18;22.00;99.90
1702;DHT22;848;48.354;10.064;2023-09-08T11:13:45;22.10;99.90
1702;DHT22;848;48.354;10.064;2023-09-08T11:16:13;22.10;99.90
1702;DHT22;848;48.354;10.064;2023-09-08T11:18:40;22.10;99.90
1702;DHT22;848;48.354;10.064;2023-09-08T11:21:09;22.10;99.90
1702;DHT22;848;48.354;10.064;2023-09-08T11:23:41;22.10;99.90
1702;DHT22;848;48.354;10.064;2023-09-08T11:26:12;22.20;99.90
1702;DHT22;848;48.354;10.064;2023-09-08T11:28:40;22.20;99.90
1702;DHT22;848;48.354;10.064;2023-09-08T11:31:08;22.20;99.90
1702;DHT22;848;48.354;10.064;2023-09-08T11:33:37;22.20;99.90
1702;DHT22;848;48.354;10.064;2023-09-08T11:36:12;22.20;99.90
1702;DHT22;848;48.354;10.064;2023-09-08T11:38:44;22.30;99.90
1702;DHT22;848;48.354;10.064;2023-09-08T11:41:12;22.30;99.90
1702;DHT22;848;48.354;10.064;2023-09-08T11:43:39;22.40;99.90
1702;DHT22;848;48.354;10.064;2023-09-08T11:46:07;22.40;99.90
1702;DHT22;848;48.354;10.064;2023-09-08T11:48:36;22.50;99.90
1702;DHT22;848;48.354;10.064;2023-09-08T11:51:03;22.60;99.90
1702;DHT22;848;48.354;10.064;2023-09-08T11:53:33;22.60;99.90
1702;DHT22;848;48.354;10.064;2023-09-08T11:56:01;22.60;99.90
1702;DHT22;848;48.354;10.064;2023-09-08T11:58:29;22.60;99.90
1702;DHT22;848;48.354;10.064;2023-09-08T12:00:56;22.60;99.90
1702;DHT22;848;48.354;10.064;2023-09-08T12:03:23;22.60;99.90
1702;DHT22;848;48.354;10.064;2023-09-08T12:05:52;22.70;99.90
1702;DHT22;848;48.354;10.064;2023-09-08T12:08:19;22.80;99.90
1702;DHT22;848;48.354;10.064;2023-09-08T12:10:46;22.80;99.90
1702;DHT22;848;48.354;10.064;2023-09-08T12:13:20;22.80;99.90
1702;DHT22;848;48.354;10.064;2023-09-08T12:15:47;22.80;99.90
1702;DHT22;848;48.354;10.064;2023-09-08T12:18:14;22.90;99.90
1702;DHT22;848;48.354;10.064;2023-09-08T12:20:42;22.90;99.90
1702;DHT22;848;48.354;10.064;2023-09-08T12:23:18;22.90;99.90
1702;DHT22;848;48.354;10.064;2023-09-08T12:25:45;23.00;99.90
1702;DHT22;848;48.354;10.064;2023-09-08T12:28:16;22.90;99.90
1702;DHT22;848;48.354;10.064;2023-09-08T12:30:43;22.90;99.90
1702;DHT22;848;48.354;10.064;2023-09-08T12:33:10;22.90;99.90
1702;DHT22;848;48.354;10.064;2023-09-08T12:35:38;23.00;99.90
1702;DHT22;848;48.354;10.064;2023-09-08T12:38:05;23.00;99.90
1702;DHT22;848;48.354;10.064;2023-09-08T12:40:35;23.00;99.90
1702;DHT22;848;48.354;10.064;2023-09-08T12:44:49;23.00;99.90
1702;DHT22;848;48.354;10.064;2023-09-08T12:47:16;23.00;99.90
1702;DHT22;848;48.354;10.064;2023-09-08T12:49:42;23.00;99.90
1702;DHT22;848;48.354;10.064;2023-09-08T12:52:09;22.90;99.90
1702;DHT22;848;48.354;10.064;2023-09-08T12:54:36;22.90;99.90
1702;DHT22;848;48.354;10.064;2023-09-08T12:57:03;23.00;99.90
1702;DHT22;848;48.354;10.064;2023-09-08T12:59:30;23.20;99.90
1702;DHT22;848;48.354;10.064;2023-09-08T13:01:59;23.40;99.90
1702;DHT22;848;48.354;10.064;2023-09-08T13:04:25;23.40;99.90
1702;DHT22;848;48.354;10.064;2023-09-08T13:06:52;23.40;99.90
1702;DHT22;848;48.354;10.064;2023-09-08T13:09:19;23.30;99.90
1702;DHT22;848;48.354;10.064;2023-09-08T13:11:47;23.30;99.90
1702;DHT22;848;48.354;10.064;2023-09-08T13:14:14;23.30;99.90
1702;DHT22;848;48.354;10.064;2023-09-08T13:16:41;23.30;99.90
1702;DHT22;848;48.354;10.064;2023-09-08T13:19:09;23.20;99.90
1702;DHT22;848;48.354;10.064;2023-09-08T13:21:36;23.20;99.90
1702;DHT22;848;48.354;10.064;2023-09-08T13:24:06;23.20;99.90
1702;DHT22;848;48.354;10.064;2023-09-08T13:26:34;23.30;99.90
1702;DHT22;848;48.354;10.064;2023-09-08T13:29:01;23.40;99.90
1702;DHT22;848;48.354;10.064;2023-09-08T13:31:28;23.50;99.90
1702;DHT22;848;48.354;10.064;2023-09-08T13:33:55;23.50;99.90
1702;DHT22;848;48.354;10.064;2023-09-08T13:36:23;23.60;99.90
1702;DHT22;848;48.354;10.064;2023-09-08T13:38:50;23.60;99.90
1702;DHT22;848;48.354;10.064;2023-09-08T13:41:17;23.60;99.90
1702;DHT22;848;48.354;10.064;2023-09-08T13:43:44;23.60;99.90
1702;DHT22;848;48.354;10.064;2023-09-08T13:46:11;23.70;99.90
1702;DHT22;848;48.354;10.064;2023-09-08T13:48:38;23.60;99.90
1702;DHT22;848;48.354;10.064;2023-09-08T13:51:05;23.60;99.90
1702;DHT22;848;48.354;10.064;2023-09-08T13:53:33;23.60;99.90
1702;DHT22;848;48.354;10.064;2023-09-08T13:56:00;23.60;99.90
1702;DHT22;848;48.354;10.064;2023-09-08T13:58:30;23.70;99.90
1702;DHT22;848;48.354;10.064;2023-09-08T14:00:57;23.90;99.90
1702;DHT22;848;48.354;10.064;2023-09-08T14:03:24;24.00;99.90
1702;DHT22;848;48.354;10.064;2023-09-08T14:05:51;24.10;99.90
1702;DHT22;848;48.354;10.064;2023-09-08T14:08:17;24.10;99.90
1702;DHT22;848;48.354;10.064;2023-09-08T14:10:46;24.00;99.90
1702;DHT22;848;48.354;10.064;2023-09-08T14:13:13;24.00;99.90
1702;DHT22;848;48.354;10.064;2023-09-08T14:15:39;24.00;99.90
1702;DHT22;848;48.354;10.064;2023-09-08T14:18:06;24.10;99.90
1702;DHT22;848;48.354;10.064;2023-09-08T14:20:33;24.20;99.90
1702;DHT22;848;48.354;10.064;2023-09-08T14:23:00;24.20;99.90
1702;DHT22;848;48.354;10.064;2023-09-08T14:25:27;24.20;99.90
1702;DHT22;848;48.354;10.064;2023-09-08T14:27:56;24.20;99.90
1702;DHT22;848;48.354;10.064;2023-09-08T14:30:23;24.20;99.90
1702;DHT22;848;48.354;10.064;2023-09-08T14:32:50;24.20;99.90
1702;DHT22;848;48.354;10.064;2023-09-08T14:35:17;24.10;99.90
1702;DHT22;848;48.354;10.064;2023-09-08T14:37:45;24.10;99.90
1702;DHT22;848;48.354;10.064;2023-09-08T14:40:13;24.20;99.90
1702;DHT22;848;48.354;10.064;2023-09-08T14:42:39;24.20;99.90
1702;DHT22;848;48.354;10.064;2023-09-08T14:45:09;24.10;99.90
1702;DHT22;848;48.354;10.064;2023-09-08T14:47:36;24.00;99.90
1702;DHT22;848;48.354;10.064;2023-09-08T14:50:03;24.00;99.90
1702;DHT22;848;48.354;10.064;2023-09-08T14:52:30;23.90;99.90
1702;DHT22;848;48.354;10.064;2023-09-08T14:54:57;23.90;99.90
1702;DHT22;848;48.354;10.064;2023-09-08T14:57:24;24.00;99.90
1702;DHT22;848;48.354;10.064;2023-09-08T14:59:51;24.00;99.90
1702;DHT22;848;48.354;10.064;2023-09-08T15:02:22;24.10;99.90
1702;DHT22;848;48.354;10.064;2023-09-08T15:04:49;24.10;99.90
1702;DHT22;848;48.354;10.064;2023-09-08T15:07:16;24.10;99.90
1702;DHT22;848;48.354;10.064;2023-09-08T15:09:42;24.10;99.90
1702;DHT22;848;48.354;10.064;2023-09-08T15:12:09;24.20;99.90
1702;DHT22;848;48.354;10.064;2023-09-08T15:14:37;24.20;99.90
1702;DHT22;848;48.354;10.064;2023-09-08T15:17:04;24.10;99.90
1702;DHT22;848;48.354;10.064;2023-09-08T15:19:33;24.00;99.90
1702;DHT22;848;48.354;10.064;2023-09-08T15:22:00;24.00;99.90
1702;DHT22;848;48.354;10.064;2023-09-08T15:24:26;24.00;99.90
1702;DHT22;848;48.354;10.064;2023-09-08T15:26:53;24.00;99.90
1702;DHT22;848;48.354;10.064;2023-09-08T15:29:22;24.00;99.90
1702;DHT22;848;48.354;10.064;2023-09-08T15:31:49;23.90;99.90
1702;DHT22;848;48.354;10.064;2023-09-08T15:34:16;23.90;99.90
1702;DHT22;848;48.354;10.064;2023-09-08T15:36:45;24.00;99.90
1702;DHT22;848;48.354;10.064;2023-09-08T15:39:12;24.00;99.90
1702;DHT22;848;48.354;10.064;2023-09-08T15:41:39;24.00;99.90
1702;DHT22;848;48.354;10.064;2023-09-08T15:44:07;24.00;99.90
1702;DHT22;848;48.354;10.064;2023-09-08T15:46:34;23.90;99.90
1702;DHT22;848;48.354;10.064;2023-09-08T15:49:01;23.90;99.90
1702;DHT22;848;48.354;10.064;2023-09-08T15:51:28;23.90;99.90
1702;DHT22;848;48.354;10.064;2023-09-08T15:53:56;23.90;99.90
1702;DHT22;848;48.354;10.064;2023-09-08T15:56:23;23.90;99.90
1702;DHT22;848;48.354;10.064;2023-09-08T15:58:50;24.00;99.90
1702;DHT22;848;48.354;10.064;2023-09-08T16:01:17;24.10;99.90
1702;DHT22;848;48.354;10.064;2023-09-08T16:03:43;24.00;99.90
1702;DHT22;848;48.354;10.064;2023-09-08T16:06:11;24.20;99.90
1702;DHT22;848;48.354;10.064;2023-09-08T16:08:38;24.20;99.90